createdAt,value
2023-04-14T00:01:16.002Z,98196.41
2023-04-14T00:03:44.004Z,98181.97
2023-04-14T00:06:11.597Z,98171.34
2023-04-14T00:08:38.983Z,98165.31
2023-04-14T00:11:06.670Z,98168.31
2023-04-14T00:13:34.078Z,98161.25
2023-04-14T00:16:01.487Z,98166.97
2023-04-14T00:18:29.157Z,98173.50
2023-04-14T00:20:56.526Z,98178.97
2023-04-14T00:23:23.955Z,98182.78
2023-04-14T00:25:51.689Z,98182.25
2023-04-14T00:28:19.068Z,98177.06
2023-04-14T00:30:47.378Z,98180.63
2023-04-14T00:33:15.106Z,98181.69
2023-04-14T00:35:42.480Z,98177.63
2023-04-14T00:38:09.873Z,98183.91
2023-04-14T00:40:37.665Z,98174.34
2023-04-14T00:43:05.068Z,98166.44
2023-04-14T00:45:32.617Z,98169.47
2023-04-14T00:48:00.519Z,98162.63
2023-04-14T00:50:27.986Z,98160.72
2023-04-14T00:52:56.090Z,98158.28
2023-04-14T00:55:23.824Z,98154.72
2023-04-14T00:57:51.215Z,98148.47
2023-04-14T01:00:19.739Z,98147.66
2023-04-14T01:02:47.732Z,98137.00
2023-04-14T01:05:15.687Z,98132.63
2023-04-14T01:07:44.253Z,98137.56
2023-04-14T01:10:12.066Z,98129.62
2023-04-14T01:12:54.584Z,98112.44
2023-04-14T01:15:34.227Z,98096.37
2023-04-14T01:18:16.495Z,98083.84
2023-04-14T01:20:45.004Z,98071.53
2023-04-14T01:23:26.901Z,98063.91
2023-04-14T01:26:13.181Z,98069.38
2023-04-14T01:29:04.327Z,98057.66
2023-04-14T01:31:34.653Z,98050.28
2023-04-14T01:34:15.986Z,98057.41
2023-04-14T01:36:44.845Z,98053.84
2023-04-14T01:39:15.586Z,98065.59
2023-04-14T01:41:44.900Z,98067.75
2023-04-14T01:44:12.633Z,98062.59
2023-04-14T01:46:40.005Z,98049.75
2023-04-14T01:49:07.448Z,98054.41
2023-04-14T01:51:36.219Z,98060.94
2023-04-14T01:54:03.774Z,98057.41
2023-04-14T01:56:31.794Z,98059.56
2023-04-14T01:58:59.716Z,98040.78
2023-04-14T02:01:27.891Z,98030.97
2023-04-14T02:03:56.285Z,98020.88
2023-04-14T02:06:23.793Z,98020.06
2023-04-14T02:08:51.486Z,98020.06
2023-04-14T02:11:19.342Z,98023.88
2023-04-14T02:13:48.217Z,98025.78
2023-04-14T02:16:16.618Z,98034.25
2023-04-14T02:18:44.070Z,98029.88
2023-04-14T02:21:11.737Z,98039.97
2023-04-14T02:23:39.157Z,98041.03
2023-04-14T02:26:18.075Z,98049.22
2023-04-14T02:28:57.418Z,98053.59
2023-04-14T02:31:25.749Z,98053.06
2023-04-14T02:33:54.922Z,98057.69
2023-04-14T02:36:34.685Z,98056.03
2023-04-14T02:39:06.654Z,98047.84
2023-04-14T02:41:34.065Z,98042.66
2023-04-14T02:44:08.265Z,98043.50
2023-04-14T02:46:38.964Z,98044.84
2023-04-14T02:49:07.307Z,98053.84
2023-04-14T02:51:35.955Z,98048.38
2023-04-14T02:54:04.671Z,98043.22
2023-04-14T02:56:32.926Z,98043.22
2023-04-14T02:59:00.649Z,98046.75
2023-04-14T03:01:28.529Z,98036.97
2023-04-14T03:03:56.761Z,98023.59
2023-04-14T03:06:24.617Z,98024.41
2023-04-14T03:08:52.058Z,98027.41
2023-04-14T03:11:21.416Z,98021.16
2023-04-14T03:13:50.658Z,98014.88
2023-04-14T03:16:20.426Z,98012.16
2023-04-14T03:18:51.064Z,98009.44
2023-04-14T03:21:19.202Z,98006.97
2023-04-14T03:23:46.670Z,98000.44
2023-04-14T03:26:18.366Z,97982.19
2023-04-14T03:28:47.260Z,97971.00
2023-04-14T03:31:16.561Z,97977.56
2023-04-14T03:33:46.198Z,97999.34
2023-04-14T03:36:15.660Z,98026.59
2023-04-14T03:38:43.172Z,98028.50
2023-04-14T03:41:10.785Z,98027.69
2023-04-14T03:43:38.842Z,98029.63
2023-04-14T03:46:07.020Z,98051.41
2023-04-14T03:48:36.833Z,98083.28
2023-04-14T03:51:04.726Z,98082.47
2023-04-14T03:53:34.535Z,98075.38
2023-04-14T03:56:01.979Z,98074.84
2023-04-14T03:58:29.736Z,98068.31
2023-04-14T04:00:57.204Z,98070.75
2023-04-14T04:03:25.163Z,98069.12
2023-04-14T04:05:53.705Z,98056.59
2023-04-14T04:08:22.070Z,98053.31
2023-04-14T04:10:50.962Z,98044.31
2023-04-14T04:13:18.429Z,98041.31
2023-04-14T04:15:46.535Z,98036.72
2023-04-14T04:18:15.633Z,98036.97
2023-04-14T04:20:43.852Z,98044.31
2023-04-14T04:23:11.553Z,98033.44
2023-04-14T04:25:39.850Z,98031.78
2023-04-14T04:28:07.972Z,98014.34
2023-04-14T04:30:36.653Z,98008.91
2023-04-14T04:33:04.721Z,98009.19
2023-04-14T04:35:32.834Z,97998.53
2023-04-14T04:38:03.925Z,97997.72
2023-04-14T04:40:41.304Z,97995.28
2023-04-14T04:43:09.413Z,98001.56
2023-04-14T04:45:59.199Z,98002.66
2023-04-14T04:48:26.884Z,98021.44
2023-04-14T04:50:54.583Z,98030.16
2023-04-14T04:53:22.065Z,98022.00
2023-04-14T04:55:49.503Z,98012.44
2023-04-14T04:58:17.205Z,98014.06
2023-04-14T05:00:44.630Z,98025.25
2023-04-14T05:03:12.169Z,98037.78
2023-04-14T05:05:39.860Z,98039.69
2023-04-14T05:08:08.372Z,98050.59
2023-04-14T05:10:38.755Z,98048.97
2023-04-14T05:13:06.918Z,98056.31
2023-04-14T05:15:34.372Z,98044.59
2023-04-14T05:18:01.910Z,98047.34
2023-04-14T05:20:29.703Z,98052.78
2023-04-14T05:22:57.262Z,98054.66
2023-04-14T05:25:24.635Z,98054.94
2023-04-14T05:27:52.341Z,98053.31
2023-04-14T05:30:20.401Z,98049.78
2023-04-14T05:32:47.955Z,98044.31
2023-04-14T05:35:16.136Z,98047.06
2023-04-14T05:37:43.542Z,98048.16
2023-04-14T05:40:11.461Z,98046.50
2023-04-14T05:42:40.925Z,98049.22
2023-04-14T05:45:09.606Z,98053.03
2023-04-14T05:47:37.327Z,98067.47
2023-04-14T05:50:06.247Z,98070.47
2023-04-14T05:52:33.643Z,98073.19
2023-04-14T05:55:01.092Z,98071.28
2023-04-14T05:57:28.804Z,98066.94
2023-04-14T05:59:58.162Z,98060.66
2023-04-14T06:02:26.100Z,98060.66
2023-04-14T06:04:54.032Z,98056.03
2023-04-14T06:07:21.752Z,98051.41
2023-04-14T06:09:49.170Z,98051.41
2023-04-14T06:12:16.955Z,98049.22
2023-04-14T06:14:44.461Z,98052.75
2023-04-14T06:17:11.842Z,98053.59
2023-04-14T06:19:39.521Z,98045.13
2023-04-14T06:22:08.522Z,98044.84
2023-04-14T06:24:36.009Z,98038.31
2023-04-14T06:27:04.130Z,98031.81
2023-04-14T06:29:31.606Z,98030.72
2023-04-14T06:32:00.581Z,98031.53
2023-04-14T06:34:28.299Z,98039.41
2023-04-14T06:36:56.661Z,98024.72
2023-04-14T06:39:24.076Z,98027.16
2023-04-14T06:41:51.729Z,98014.34
2023-04-14T06:44:19.144Z,98017.91
2023-04-14T06:46:46.558Z,98014.34
2023-04-14T06:49:15.669Z,98012.16
2023-04-14T06:51:43.210Z,98010.28
2023-04-14T06:54:10.818Z,98008.38
2023-04-14T06:56:38.552Z,98018.16
2023-04-14T06:59:06.124Z,98019.00
2023-04-14T07:01:33.590Z,98029.59
2023-04-14T07:04:06.009Z,98027.69
2023-04-14T07:06:34.952Z,98025.81
2023-04-14T07:09:02.643Z,98024.72
2023-04-14T07:11:30.297Z,98024.72
2023-04-14T07:13:59.355Z,98019.25
2023-04-14T07:16:27.206Z,98020.09
2023-04-14T07:18:54.639Z,98028.78
2023-04-14T07:21:22.186Z,98020.59
2023-04-14T07:23:49.909Z,98033.16
2023-04-14T07:26:17.344Z,98020.34
2023-04-14T07:28:44.761Z,98011.37
2023-04-14T07:31:12.698Z,98012.19
2023-04-14T07:33:40.384Z,98013.00
2023-04-14T07:36:09.947Z,98007.53
2023-04-14T07:38:38.307Z,98009.47
2023-04-14T07:41:06.488Z,97996.37
2023-04-14T07:43:36.898Z,98004.53
2023-04-14T07:46:05.670Z,98004.53
2023-04-14T07:48:36.406Z,98009.16
2023-04-14T07:51:04.426Z,98003.44
2023-04-14T07:53:32.639Z,98000.72
2023-04-14T07:56:00.183Z,98002.38
2023-04-14T07:58:29.315Z,98004.25
2023-04-14T08:00:57.589Z,98015.72
2023-04-14T08:03:45.163Z,98009.97
2023-04-14T08:06:13.273Z,98011.06
2023-04-14T08:08:41.097Z,98008.34
2023-04-14T08:11:08.615Z,98001.00
2023-04-14T08:13:36.071Z,97996.34
2023-04-14T08:16:04.207Z,97985.44
2023-04-14T08:18:31.835Z,97981.09
2023-04-14T08:20:59.402Z,97992.81
2023-04-14T08:23:27.092Z,97990.91
2023-04-14T08:25:54.507Z,97992.00
2023-04-14T08:28:21.930Z,97991.19
2023-04-14T08:30:49.692Z,97982.19
2023-04-14T08:33:17.132Z,97986.84
2023-04-14T08:35:44.554Z,97992.53
2023-04-14T08:38:12.274Z,97996.37
2023-04-14T08:40:41.756Z,97988.19
2023-04-14T08:43:09.577Z,98002.91
2023-04-14T08:45:37.968Z,97998.56
2023-04-14T08:48:05.938Z,98007.81
2023-04-14T08:50:37.403Z,98017.06
2023-04-14T08:53:06.712Z,98022.00
2023-04-14T08:55:34.222Z,98018.72
2023-04-14T08:58:02.388Z,98018.72
2023-04-14T09:00:31.002Z,98010.00
2023-04-14T09:02:58.796Z,98008.38
2023-04-14T09:05:27.297Z,98016.78
2023-04-14T09:07:54.957Z,98027.69
2023-04-14T09:10:23.174Z,98021.72
2023-04-14T09:12:50.631Z,98023.62
2023-04-14T09:15:18.399Z,98023.62
2023-04-14T09:17:46.040Z,98024.72
2023-04-14T09:20:38.476Z,98036.69
2023-04-14T09:23:01.442Z,98040.50
2023-04-14T09:25:28.869Z,98045.97
2023-04-14T09:27:56.292Z,98043.50
2023-04-14T09:30:23.987Z,98041.03
2023-04-14T09:32:53.605Z,98041.03
2023-04-14T09:35:50.986Z,98047.59
2023-04-14T09:38:35.684Z,98043.75
2023-04-14T09:41:04.425Z,98050.31
2023-04-14T09:43:31.897Z,98047.31
2023-04-14T09:46:09.503Z,98043.75
2023-04-14T09:48:52.106Z,98043.75
2023-04-14T09:51:23.535Z,98034.25
2023-04-14T09:53:52.899Z,98037.78
2023-04-14T09:56:21.197Z,98029.09
2023-04-14T09:58:49.036Z,98030.72
2023-04-14T10:01:18.179Z,98029.09
2023-04-14T10:03:49.550Z,98035.59
2023-04-14T10:06:20.216Z,98040.78
2023-04-14T10:08:52.148Z,98046.50
2023-04-14T10:11:27.465Z,98048.69
2023-04-14T10:14:00.753Z,98052.22
2023-04-14T10:16:28.300Z,98048.69
2023-04-14T10:18:57.589Z,98054.41
2023-04-14T10:21:25.342Z,98048.13
2023-04-14T10:23:52.768Z,98046.22
2023-04-14T10:26:20.785Z,98039.94
2023-04-14T10:28:49.935Z,98046.75
2023-04-14T10:31:29.360Z,98040.50
2023-04-14T10:33:57.105Z,98043.75
2023-04-14T10:36:28.893Z,98043.75
2023-04-14T10:39:02.077Z,98044.31
2023-04-14T10:41:51.236Z,98048.13
2023-04-14T10:44:34.986Z,98050.59
2023-04-14T10:47:05.479Z,98054.12
2023-04-14T10:49:40.689Z,98044.84
2023-04-14T10:52:17.189Z,98054.66
2023-04-14T10:55:09.439Z,98050.84
2023-04-14T10:57:40.453Z,98050.31
2023-04-14T11:00:25.398Z,98053.31
2023-04-14T11:02:59.638Z,98042.13
2023-04-14T11:05:27.480Z,98047.00
2023-04-14T11:07:56.248Z,98035.31
2023-04-14T11:10:25.264Z,98038.31
2023-04-14T11:13:08.508Z,98035.59
2023-04-14T11:15:57.186Z,98041.84
2023-04-14T11:18:31.748Z,98035.31
2023-04-14T11:21:06.228Z,98031.22
2023-04-14T11:23:34.940Z,98028.75
2023-04-14T11:26:04.622Z,98026.87
2023-04-14T11:28:36.234Z,98023.56
2023-04-14T11:31:06.265Z,98017.88
2023-04-14T11:33:35.862Z,98019.75
2023-04-14T11:36:04.429Z,98027.09
2023-04-14T11:38:32.207Z,98020.84
2023-04-14T11:40:59.730Z,98021.66
2023-04-14T11:43:31.016Z,98026.28
2023-04-14T11:46:00.390Z,98024.66
2023-04-14T11:48:28.136Z,98032.81
2023-04-14T11:51:01.152Z,98035.56
2023-04-14T11:53:28.866Z,98032.00
2023-04-14T11:55:57.642Z,98027.66
2023-04-14T11:58:25.781Z,98028.47
2023-04-14T12:00:56.041Z,98021.38
2023-04-14T12:03:29.092Z,98021.38
2023-04-14T12:06:02.337Z,98014.31
2023-04-14T12:08:31.053Z,98015.12
2023-04-14T12:10:58.517Z,98014.31
2023-04-14T12:13:26.944Z,98008.03
2023-04-14T12:15:54.864Z,98007.22
2023-04-14T12:18:22.764Z,98012.69
2023-04-14T12:20:54.864Z,98012.69
2023-04-14T12:23:23.397Z,98016.50
2023-04-14T12:25:51.494Z,98017.31
2023-04-14T12:28:24.150Z,98033.63
2023-04-14T12:30:52.384Z,98024.66
2023-04-14T12:33:22.808Z,98035.53
2023-04-14T12:35:53.716Z,98037.47
2023-04-14T12:38:25.597Z,98041.25
2023-04-14T12:40:53.008Z,98044.81
2023-04-14T12:43:27.732Z,98037.69
2023-04-14T12:45:55.453Z,98047.53
2023-04-14T12:48:23.150Z,98057.56
2023-04-14T12:50:52.409Z,98051.31
2023-04-14T12:53:27.211Z,98058.66
2023-04-14T12:56:17.481Z,98055.13
2023-04-14T12:58:48.476Z,98044.81
2023-04-14T13:01:17.420Z,98052.97
2023-04-14T13:03:52.583Z,98058.66
2023-04-14T13:06:21.829Z,98052.97
2023-04-14T13:08:50.092Z,98056.50
2023-04-14T13:11:18.183Z,98068.47
2023-04-14T13:13:45.957Z,98075.00
2023-04-14T13:16:16.772Z,98073.09
2023-04-14T13:18:46.953Z,98081.25
2023-04-14T13:21:14.422Z,98081.25
2023-04-14T13:23:41.968Z,98075.81
2023-04-14T13:26:09.703Z,98064.09
2023-04-14T13:28:37.270Z,98064.91
2023-04-14T13:31:04.739Z,98066.00
2023-04-14T13:33:32.617Z,98081.25
2023-04-14T13:36:02.251Z,98080.44
2023-04-14T13:38:30.000Z,98083.16
2023-04-14T13:40:57.918Z,98093.22
2023-04-14T13:43:25.323Z,98087.78
2023-04-14T13:45:53.001Z,98093.22
2023-04-14T13:48:20.894Z,98095.97
2023-04-14T13:50:49.982Z,98078.00
2023-04-14T13:53:18.021Z,98077.19
2023-04-14T13:55:45.836Z,98069.81
2023-04-14T13:58:13.229Z,98073.63
2023-04-14T14:00:41.467Z,98082.63
2023-04-14T14:03:09.343Z,98092.69
2023-04-14T14:05:36.932Z,98091.88
2023-04-14T14:08:04.371Z,98099.19
2023-04-14T14:10:32.047Z,98094.03
2023-04-14T14:12:59.443Z,98078.53
2023-04-14T14:15:27.013Z,98104.66
2023-04-14T14:17:55.186Z,98117.44
2023-04-14T14:20:22.710Z,98120.16
2023-04-14T14:22:50.123Z,98126.41
2023-04-14T14:25:20.961Z,98116.63
2023-04-14T14:27:50.222Z,98116.63
2023-04-14T14:30:17.927Z,98120.44
2023-04-14T14:32:45.489Z,98132.16
2023-04-14T14:35:12.894Z,98121.53
2023-04-14T14:37:42.116Z,98122.88
2023-04-14T14:40:09.951Z,98139.22
2023-04-14T14:42:37.389Z,98144.13
2023-04-14T14:45:05.814Z,98152.28
2023-04-14T14:47:34.308Z,98138.94
2023-04-14T14:50:05.237Z,98146.03
2023-04-14T14:52:35.451Z,98146.28
2023-04-14T14:55:03.490Z,98142.72
2023-04-14T14:57:31.112Z,98147.38
2023-04-14T14:59:59.063Z,98150.91
2023-04-14T15:02:26.582Z,98165.31
2023-04-14T15:04:54.284Z,98161.25
2023-04-14T15:07:21.982Z,98158.25
2023-04-14T15:09:49.603Z,98167.50
2023-04-14T15:12:17.541Z,98166.41
2023-04-14T15:14:45.438Z,98178.13
2023-04-14T15:17:13.056Z,98169.94
2023-04-14T15:19:41.508Z,98171.63
2023-04-14T15:22:10.447Z,98182.50
2023-04-14T15:24:37.835Z,98184.12
2023-04-14T15:27:05.913Z,98182.22
2023-04-14T15:29:33.602Z,98187.41
2023-04-14T15:32:01.433Z,98188.22
2023-04-14T15:34:29.036Z,98187.16
2023-04-14T15:36:56.909Z,98184.44
2023-04-14T15:39:24.621Z,98184.44
2023-04-14T15:41:52.159Z,98191.50
2023-04-14T15:44:19.836Z,98195.03
2023-04-14T15:46:47.230Z,98201.31
2023-04-14T15:49:14.631Z,98199.66
2023-04-14T15:51:42.363Z,98206.75
2023-04-14T15:54:09.762Z,98213.81
2023-04-14T15:56:37.265Z,98223.06
2023-04-14T15:59:04.990Z,98223.91
2023-04-14T16:01:32.694Z,98219.53
2023-04-14T16:04:00.993Z,98218.72
2023-04-14T16:06:28.845Z,98221.16
2023-04-14T16:08:56.516Z,98219.53
2023-04-14T16:11:24.724Z,98223.91
2023-04-14T16:13:52.768Z,98226.91
2023-04-14T16:16:20.317Z,98238.59
2023-04-14T16:18:48.706Z,98235.88
2023-04-14T16:21:16.374Z,98240.50
2023-04-14T16:23:43.861Z,98238.59
2023-04-14T16:26:12.438Z,98241.31
2023-04-14T16:28:39.939Z,98241.31
2023-04-14T16:31:08.339Z,98247.56
2023-04-14T16:33:36.401Z,98253.84
2023-04-14T16:36:04.946Z,98253.84
2023-04-14T16:38:32.823Z,98256.56
2023-04-14T16:41:01.353Z,98258.47
2023-04-14T16:43:29.164Z,98265.53
2023-04-14T16:46:07.891Z,98271.00
2023-04-14T16:48:37.388Z,98274.53
2023-04-14T16:51:06.225Z,98281.06
2023-04-14T16:53:35.144Z,98284.88
2023-04-14T16:56:06.705Z,98285.69
2023-04-14T16:58:34.671Z,98288.69
2023-04-14T17:01:02.513Z,98294.94
2023-04-14T17:03:30.532Z,98307.75
2023-04-14T17:05:58.209Z,98309.66
2023-04-14T17:08:27.338Z,98315.09
2023-04-14T17:10:55.669Z,98318.63
2023-04-14T17:13:23.194Z,98319.16
2023-04-14T17:15:58.851Z,98311.28
2023-04-14T17:18:36.630Z,98313.19
2023-04-14T17:21:05.754Z,98320.25
2023-04-14T17:23:37.629Z,98322.97
2023-04-14T17:26:05.929Z,98322.16
2023-04-14T17:28:36.041Z,98328.44
2023-04-14T17:31:05.486Z,98331.16
2023-04-14T17:33:34.107Z,98334.19
2023-04-14T17:36:02.067Z,98339.94
2023-04-14T17:38:30.385Z,98347.66
2023-04-14T17:40:59.868Z,98359.19
2023-04-14T17:43:27.951Z,98359.81
2023-04-14T17:45:57.068Z,98360.94
2023-04-14T17:48:27.360Z,98366.44
2023-04-14T17:50:58.222Z,98374.94
2023-04-14T17:53:30.044Z,98378.03
2023-04-14T17:55:58.093Z,98386.47
2023-04-14T17:58:27.608Z,98393.31
2023-04-14T18:00:56.170Z,98387.06
2023-04-14T18:03:24.817Z,98390.63
2023-04-14T18:05:53.876Z,98401.84
2023-04-14T18:08:21.728Z,98404.06
2023-04-14T18:10:50.949Z,98404.34
2023-04-14T18:13:20.600Z,98415.59
2023-04-14T18:15:49.740Z,98415.03
2023-04-14T18:18:20.560Z,98416.41
2023-04-14T18:20:55.553Z,98420.53
2023-04-14T18:23:24.717Z,98414.53
2023-04-14T18:28:34.683Z,98427.34
2023-04-14T18:31:04.296Z,98431.72
2023-04-14T18:33:32.535Z,98430.34
2023-04-14T18:36:01.278Z,98432.81
2023-04-14T18:38:29.980Z,98433.09
2023-04-14T18:41:06.305Z,98434.19
2023-04-14T18:43:35.171Z,98436.09
2023-04-14T18:46:04.412Z,98435.81
2023-04-14T18:48:33.138Z,98435.28
2023-04-14T18:51:03.417Z,98434.72
2023-04-14T18:53:33.302Z,98430.06
2023-04-14T18:56:02.326Z,98434.16
2023-04-14T18:58:32.191Z,98434.16
2023-04-14T19:01:03.398Z,98443.75
2023-04-14T19:03:33.444Z,98447.53
2023-04-14T19:06:02.246Z,98449.47
2023-04-14T19:08:31.042Z,98447.81
2023-04-14T19:11:00.495Z,98457.12
2023-04-14T19:13:35.623Z,98459.03
2023-04-14T19:16:19.084Z,98456.56
2023-04-14T19:18:48.062Z,98456.03
2023-04-14T19:21:15.692Z,98456.31
2023-04-14T19:23:45.709Z,98463.69
2023-04-14T19:26:14.363Z,98463.44
2023-04-14T19:28:42.903Z,98460.13
2023-04-14T19:31:13.174Z,98467.50
2023-04-14T19:33:42.323Z,98478.44
2023-04-14T19:36:16.563Z,98482.81
2023-04-14T19:38:45.103Z,98489.38
2023-04-14T19:41:13.033Z,98490.75
2023-04-14T19:43:41.300Z,98485.00
2023-04-14T19:46:13.348Z,98491.56
2023-04-14T19:48:41.837Z,98487.72
2023-04-14T19:51:10.428Z,98498.91
2023-04-14T19:53:38.730Z,98505.75
2023-04-14T19:56:07.093Z,98497.81
2023-04-14T19:58:38.323Z,98498.38
2023-04-14T20:01:06.326Z,98511.47
2023-04-14T20:03:35.381Z,98509.84
2023-04-14T20:06:03.724Z,98512.03
2023-04-14T20:08:32.631Z,98511.47
2023-04-14T20:11:02.038Z,98504.66
2023-04-14T20:13:34.050Z,98509.28
2023-04-14T20:16:02.393Z,98503.25
2023-04-14T20:18:30.347Z,98517.19
2023-04-14T20:20:58.921Z,98515.81
2023-04-14T20:23:27.202Z,98511.47
2023-04-14T20:25:56.128Z,98510.09
2023-04-14T20:28:26.480Z,98513.09
2023-04-14T20:30:56.359Z,98511.44
2023-04-14T20:33:24.723Z,98511.16
2023-04-14T20:35:54.348Z,98505.16
2023-04-14T20:38:23.366Z,98500.22
2023-04-14T20:40:51.144Z,98495.06
2023-04-14T20:43:20.256Z,98508.94
2023-04-14T20:45:50.011Z,98504.88
2023-04-14T20:48:18.498Z,98502.41
2023-04-14T20:50:49.918Z,98505.16
2023-04-14T20:53:18.462Z,98501.31
2023-04-14T20:55:47.890Z,98508.69
2023-04-14T20:58:15.404Z,98505.97
2023-04-14T21:00:43.417Z,98519.03
2023-04-14T21:03:29.666Z,98526.69
2023-04-14T21:05:57.596Z,98530.22
2023-04-14T21:08:25.049Z,98532.09
2023-04-14T21:11:15.241Z,98530.41
2023-04-14T21:15:28.285Z,98531.78
2023-04-14T21:16:28.622Z,98537.75
2023-04-14T21:18:56.889Z,98539.94
2023-04-14T21:21:24.472Z,98537.75
2023-04-14T21:23:52.178Z,98530.66
2023-04-14T21:26:21.930Z,98527.34
2023-04-14T21:28:49.560Z,98513.44
2023-04-14T21:31:17.490Z,98510.72
2023-04-14T21:33:46.064Z,98516.41
2023-04-14T21:36:14.873Z,98530.34
2023-04-14T21:38:42.318Z,98531.44
2023-04-14T21:41:10.222Z,98529.75
2023-04-14T21:43:38.677Z,98531.94
2023-04-14T21:46:06.223Z,98531.41
2023-04-14T21:48:33.911Z,98530.56
2023-04-14T21:51:01.464Z,98537.09
2023-04-14T21:53:28.865Z,98534.66
2023-04-14T21:56:09.343Z,98536.00
2023-04-14T21:58:41.339Z,98545.25
2023-04-14T22:01:12.399Z,98545.25
2023-04-14T22:03:40.892Z,98545.53
2023-04-14T22:06:09.978Z,98538.44
2023-04-14T22:08:38.970Z,98532.41
2023-04-14T22:11:07.097Z,98540.34
2023-04-14T22:13:34.490Z,98547.16
2023-04-14T22:16:02.432Z,98537.34
2023-04-14T22:18:31.062Z,98534.84
2023-04-14T22:20:58.755Z,98551.50
2023-04-14T22:23:26.211Z,98549.84
2023-04-14T22:25:54.889Z,98556.41
2023-04-14T22:28:22.283Z,98556.62
2023-04-14T22:30:49.735Z,98554.19
2023-04-14T22:33:17.461Z,98552.56
2023-04-14T22:35:44.923Z,98543.56
2023-04-14T22:38:14.970Z,98551.16
2023-04-14T22:40:42.670Z,98551.44
2023-04-14T22:43:10.791Z,98550.63
2023-04-14T22:45:38.305Z,98555.50
2023-04-14T22:48:07.019Z,98557.66
2023-04-14T22:50:35.864Z,98558.50
2023-04-14T22:53:03.402Z,98553.31
2023-04-14T22:55:31.407Z,98557.09
2023-04-14T22:57:58.870Z,98556.56
2023-04-14T23:00:26.684Z,98551.34
2023-04-14T23:02:55.851Z,98564.97
2023-04-14T23:05:23.482Z,98564.97
2023-04-14T23:07:51.173Z,98565.22
2023-04-14T23:10:19.049Z,98553.50
2023-04-14T23:12:46.860Z,98556.50
2023-04-14T23:15:15.274Z,98558.41
2023-04-14T23:17:42.949Z,98558.41
2023-04-14T23:20:10.642Z,98559.50
2023-04-14T23:22:38.578Z,98552.37
2023-04-14T23:25:06.366Z,98558.91
2023-04-14T23:27:33.796Z,98558.09
2023-04-14T23:30:01.335Z,98565.44
2023-04-14T23:32:30.205Z,98563.53
2023-04-14T23:34:57.696Z,98573.63
2023-04-14T23:37:25.063Z,98566.53
2023-04-14T23:39:52.754Z,98573.91
2023-04-14T23:42:20.274Z,98571.41
2023-04-14T23:44:49.206Z,98578.78
2023-04-14T23:47:16.909Z,98587.53
2023-04-14T23:49:44.322Z,98586.13
2023-04-14T23:52:11.952Z,98583.69
2023-04-14T23:54:39.762Z,98582.84
2023-04-14T23:57:07.638Z,98579.28
2023-04-14T23:59:35.171Z,98582.28
